Time;durP1;ratioP1;P1;durP2;ratioP2;P2;SDS_P1;SDS_P2;PMS_P1;PMS_P2;Temp;Humidity;BMP_temperature;BMP_pressure;BME280_temperature;BME280_humidity;BME280_pressure;Samples;Min_cycle;Max_cycle;Signal;HPM_P1;HPM_P2
2020/12/19 00:26:09;;;;;;;;;;;;;;;;;;;;;
2020/12/19 00:35:57;;;;;;;1999.90;999.90;;;6.30;99.90;;;;;;6157034;23;20149;-81
2020/12/19 00:38:28;;;;;;;1999.90;999.90;;;6.30;99.90;;;;;;6160510;23;20173;-81
2020/12/19 00:40:54;;;;;;;1999.90;999.90;;;6.40;99.90;;;;;;6159981;23;20130;-80
2020/12/19 00:43:25;;;;;;;1999.90;999.90;;;6.40;99.90;;;;;;6159966;23;20177;-81
2020/12/19 00:46:22;;;;;;;1999.90;999.90;;;6.50;99.90;;;;;;6160104;23;20361;-81
2020/12/19 00:48:55;;;;;;;1999.90;999.90;;;6.50;99.90;;;;;;6159906;23;20194;-80
2020/12/19 00:51:25;;;;;;;1999.90;999.90;;;6.50;99.90;;;;;;6159803;23;20150;-81
2020/12/19 00:54:47;;;;;;;1999.90;999.90;;;6.50;99.90;;;;;;6159999;23;20456;-81
2020/12/19 01:04:55;;;;;;;;;;;;;;;;;;;;;
2020/12/19 01:07:09;;;;;;;1999.90;999.90;;;6.50;99.90;;;;;;6137298;23;20201;-80
2020/12/19 01:13:40;;;;;;;1999.90;999.90;;;6.40;99.90;;;;;;6099116;23;20158;-81
2020/12/19 01:16:52;;;;;;;1999.90;999.90;;;6.40;99.90;;;;;;6158720;23;20150;-80
2020/12/19 01:19:25;;;;;;;1999.90;999.90;;;6.40;99.90;;;;;;6098228;23;20656;-80
2020/12/19 01:28:50;;;;;;;1999.90;999.90;;;6.40;99.90;;;;;;6119302;23;20238;-81
2020/12/19 01:31:42;;;;;;;1999.90;999.90;;;6.30;99.90;;;;;;6126605;23;20177;-81
2020/12/19 01:34:59;;;;;;;1999.90;999.90;;;6.30;99.90;;;;;;6127228;23;20557;-81
2020/12/19 01:37:47;;;;;;;1999.90;999.90;;;6.30;99.90;;;;;;6067100;23;20637;-81
2020/12/19 01:40:43;;;;;;;;;;;;;;;;;;;;;
2020/12/19 01:43:57;;;;;;;1999.90;999.90;;;6.30;99.90;;;;;;6141206;23;20206;-80
2020/12/19 01:46:47;;;;;;;1999.90;999.90;;;6.40;99.90;;;;;;6161498;23;20486;-81
2020/12/19 01:50:07;;;;;;;1999.90;999.90;;;6.40;99.90;;;;;;6160939;23;20613;-81
2020/12/19 01:53:12;;;;;;;;;;;;;;;;;;;;;
2020/12/19 01:55:49;;;;;;;1999.90;999.90;;;6.60;99.90;;;;;;6160966;23;20230;-81
2020/12/19 01:59:07;;;;;;;1999.90;999.90;;;6.60;99.90;;;;;;6161557;23;20130;-81
2020/12/19 02:02:20;;;;;;;;;;;;;;;;;;;;;
2020/12/19 02:09:21;;;;;;;1999.90;999.90;;;6.70;99.90;;;;;;6160988;23;20634;-81
2020/12/19 02:12:09;;;;;;;1999.90;999.90;;;6.70;99.90;;;;;;6044985;23;20180;-80
2020/12/19 02:18:36;;;;;;;1999.90;999.90;;;6.60;99.90;;;;;;6113952;23;20155;-81
2020/12/19 02:21:24;;;;;;;1999.90;999.90;;;6.60;99.90;;;;;;6161999;23;20129;-81
2020/12/19 02:24:40;;;;;;;;;;;;;;;;;;;;;
2020/12/19 02:27:44;;;;;;;1999.90;999.90;;;6.60;99.90;;;;;;6183424;23;20247;-80
2020/12/19 02:34:26;;;;;;;1999.90;999.90;;;6.60;99.90;;;;;;6071428;23;20160;-81
2020/12/19 02:37:11;;;;;;;1999.90;999.90;;;6.50;99.90;;;;;;6071986;23;20594;-80
2020/12/19 02:39:39;;;;;;;1999.90;999.90;;;6.50;99.90;;;;;;6191365;23;20121;-81
2020/12/19 02:42:22;;;;;;;1999.90;999.90;;;6.50;99.90;;;;;;6191689;23;20498;-80
2020/12/19 02:44:54;;;;;;;1999.90;999.90;;;6.50;99.90;;;;;;6191594;23;20549;-81
2020/12/19 02:47:59;;;;;;;;;;;;;;;;;;;;;
2020/12/19 02:51:04;;;;;;;1999.90;999.90;;;6.40;99.90;;;;;;6191194;23;20625;-81
2020/12/19 02:55:02;;;;;;;1999.90;999.90;;;6.40;99.90;;;;;;6190844;23;20149;-81
2020/12/19 02:57:30;;;;;;;1999.90;999.90;;;6.40;99.90;;;;;;6104493;23;20700;-81
2020/12/19 03:00:05;;;;;;;1999.90;999.90;;;6.40;99.90;;;;;;6071535;23;20549;-81
2020/12/19 03:03:25;;;;;;;;;;;;;;;;;;;;;
2020/12/19 03:05:56;;;;;;;1999.90;999.90;;;6.30;99.90;;;;;;6076765;23;20227;-81
2020/12/19 03:08:47;;;;;;;1999.90;999.90;;;6.30;99.90;;;;;;6099492;23;20151;-80
2020/12/19 03:11:43;;;;;;;1999.90;999.90;;;6.30;99.90;;;;;;6099257;23;20198;-81
2020/12/19 03:14:32;;;;;;;1999.90;999.90;;;6.30;99.90;;;;;;6099699;23;20128;-81
2020/12/19 03:20:18;;;;;;;1999.90;999.90;;;6.20;99.90;;;;;;6157121;23;20150;-81
2020/12/19 03:22:57;;;;;;;1999.90;999.90;;;6.30;99.90;;;;;;6160355;23;20204;-81
2020/12/19 03:25:49;;;;;;;1999.90;999.90;;;6.20;99.90;;;;;;6160691;23;20176;-81
2020/12/19 03:28:30;;;;;;;1999.90;999.90;;;6.10;99.90;;;;;;6133529;23;20631;-81
2020/12/19 03:31:24;;;;;;;1999.90;999.90;;;6.10;99.90;;;;;;6160621;23;20150;-81
2020/12/19 03:34:21;;;;;;;1999.90;999.90;;;6.10;99.90;;;;;;6160866;23;20126;-81
2020/12/19 03:37:17;;;;;;;1999.90;999.90;;;6.00;99.90;;;;;;6069594;23;20159;-81
2020/12/19 03:41:18;;;;;;;;;;;;;;;;;;;;;
2020/12/19 03:54:54;;;;;;;;;;;;;;;;;;;;;
2020/12/19 04:05:54;;;;;;;1999.90;999.90;;;5.80;99.90;;;;;;6004143;23;20147;-81
2020/12/19 04:11:33;;;;;;;1999.90;999.90;;;5.80;99.90;;;;;;6098945;23;20227;-81
2020/12/19 04:15:04;;;;;;;1999.90;999.90;;;5.70;99.90;;;;;;6139654;23;20150;-81
2020/12/19 04:18:07;;;;;;;1999.90;999.90;;;5.60;99.90;;;;;;6078679;23;20154;-81
2020/12/19 04:21:10;;;;;;;1999.90;999.90;;;5.70;99.90;;;;;;6159543;23;20148;-81
2020/12/19 04:24:08;;;;;;;;;;;;;;;;;;;;;
2020/12/19 04:26:51;;;;;;;1999.90;999.90;;;5.60;99.90;;;;;;6159963;23;20220;-81
2020/12/19 04:30:16;;;;;;;1999.90;999.90;;;5.60;99.90;;;;;;6159378;23;20157;-81
2020/12/19 04:33:53;;;;;;;1999.90;999.90;;;5.60;99.90;;;;;;6158439;23;20629;-81
2020/12/19 04:40:23;;;;;;;1999.90;999.90;;;5.60;99.90;;;;;;6013519;23;20178;-80
2020/12/19 04:47:01;;;;;;;1999.90;999.90;;;5.60;99.90;;;;;;5993230;23;20209;-81
2020/12/19 04:50:15;;;;;;;;;;;;;;;;;;;;;
2020/12/19 04:53:13;;;;;;;1999.90;999.90;;;5.60;99.90;;;;;;6159645;23;20225;-81
2020/12/19 04:59:52;;;;;;;1999.90;999.90;;;5.60;99.90;;;;;;6069070;23;20152;-81
2020/12/19 05:08:43;;;;;;;1999.90;999.90;;;5.60;99.90;;;;;;6055237;23;20152;-81
2020/12/19 05:11:37;;;;;;;1999.90;999.90;;;5.60;99.90;;;;;;6069883;23;20176;-81
2020/12/19 05:14:14;;;;;;;1999.90;999.90;;;5.60;99.90;;;;;;6070471;23;20180;-81
2020/12/19 05:17:25;;;;;;;;;;;;;;;;;;;;;
2020/12/19 05:23:55;;;;;;;1999.90;999.90;;;5.60;99.90;;;;;;6070063;23;20178;-80
2020/12/19 05:26:35;;;;;;;1999.90;999.90;;;5.60;99.90;;;;;;6047319;23;20164;-81
2020/12/19 05:29:49;;;;;;;1999.90;999.90;;;5.60;99.90;;;;;;6099566;23;20157;-80
2020/12/19 05:32:41;;;;;;;1999.90;999.90;;;5.60;99.90;;;;;;6140196;23;20170;-81
2020/12/19 05:35:26;;;;;;;1999.90;999.90;;;5.60;99.90;;;;;;6161147;23;20506;-81
2020/12/19 05:38:09;;;;;;;1999.90;999.90;;;5.60;99.90;;;;;;6161164;23;20152;-81
2020/12/19 05:40:53;;;;;;;1999.90;999.90;;;5.60;99.90;;;;;;6161556;23;20530;-81
2020/12/19 05:50:44;;;;;;;;;;;;;;;;;;;;;
2020/12/19 05:57:50;;;;;;;;;;;;;;;;;;;;;
2020/12/19 06:11:24;;;;;;;1999.90;999.90;;;5.90;99.90;;;;;;6047933;23;20354;-81
2020/12/19 07:28:57;;;;;;;1999.90;999.90;;;6.20;99.90;;;;;;6205281;23;20645;-86
2020/12/19 07:31:58;;;;;;;;;;;;;;;;;;;;;
2020/12/19 07:34:51;;;;;;;1999.90;999.90;;;6.30;99.90;;;;;;6215690;23;20231;-89
2020/12/19 07:37:49;;;;;;;1999.90;999.90;;;6.30;99.90;;;;;;6217057;23;20585;-89
2020/12/19 07:41:37;;;;;;;1999.90;999.90;;;6.40;99.90;;;;;;6042949;23;20222;-89
2020/12/19 07:44:41;;;;;;;1999.90;999.90;;;6.40;99.90;;;;;;6056410;23;20598;-89
2020/12/19 07:51:21;;;;;;;;;;;;;;;;;;;;;
2020/12/19 08:00:25;;;;;;;1999.90;999.90;;;6.30;99.90;;;;;;6032910;23;20154;-89
2020/12/19 08:03:35;;;;;;;1999.90;999.90;;;6.30;99.90;;;;;;6189190;23;20155;-88
2020/12/19 08:06:32;;;;;;;1999.90;999.90;;;6.30;99.90;;;;;;6189515;23;20713;-89
2020/12/19 08:09:22;;;;;;;;;;;;;;;;;;;;;
2020/12/19 08:12:39;;;;;;;1999.90;999.90;;;6.20;99.90;;;;;;6216005;23;20251;-89
2020/12/19 08:16:46;;;;;;;1999.90;999.90;;;6.20;99.90;;;;;;6215001;23;20163;-88
2020/12/19 08:19:10;;;;;;;1999.90;999.90;;;6.20;99.90;;;;;;5960402;23;20155;-89
2020/12/19 08:22:09;;;;;;;1999.90;999.90;;;6.30;99.90;;;;;;6078686;23;20241;-88
2020/12/19 08:25:10;;;;;;;1999.90;999.90;;;6.30;99.90;;;;;;6182784;23;20179;-88
2020/12/19 08:27:49;;;;;;;1999.90;999.90;;;6.30;99.90;;;;;;6216598;23;20152;-86
2020/12/19 08:30:23;;;;;;;1999.90;999.90;;;6.40;99.90;;;;;;6190230;23;20222;-87
2020/12/19 08:33:16;;;;;;;1999.90;999.90;;;6.40;99.90;;;;;;6216410;23;20180;-87
2020/12/19 08:35:45;;;;;;;1999.90;999.90;;;6.40;99.90;;;;;;6215782;23;20227;-88
2020/12/19 08:38:16;;;;;;;1999.90;999.90;;;6.50;99.90;;;;;;6215929;23;20188;-88
2020/12/19 08:40:59;;;;;;;1999.90;999.90;;;6.50;99.90;;;;;;6190796;23;20153;-88
2020/12/19 08:43:43;;;;;;;1999.90;999.90;;;6.50;99.90;;;;;;6188893;23;20151;-88
2020/12/19 08:46:16;;;;;;;1999.90;999.90;;;6.50;99.90;;;;;;6216439;23;20199;-88
2020/12/19 08:48:47;;;;;;;1999.90;999.90;;;6.60;99.90;;;;;;6189707;23;20219;-86
2020/12/19 08:51:19;;;;;;;1999.90;999.90;;;6.60;99.90;;;;;;6190410;23;20226;-87
2020/12/19 08:53:46;;;;;;;1999.90;999.90;;;6.60;99.90;;;;;;6192152;23;20511;-86
2020/12/19 08:56:18;;;;;;;1999.90;999.90;;;6.70;99.90;;;;;;6192107;23;20156;-86
2020/12/19 08:58:54;;;;;;;1999.90;999.90;;;6.70;99.90;;;;;;6217853;23;20163;-86
2020/12/19 09:01:47;;;;;;;1999.90;999.90;;;6.70;99.90;;;;;;6165951;23;20148;-86
2020/12/19 09:04:38;;;;;;;1999.90;999.90;;;6.70;99.90;;;;;;6191311;23;20140;-86
2020/12/19 09:07:17;;;;;;;1999.90;999.90;;;6.80;99.90;;;;;;6206426;23;20155;-86
2020/12/19 09:09:55;;;;;;;1999.90;999.90;;;6.80;99.90;;;;;;6189621;23;20198;-87
2020/12/19 09:12:23;;;;;;;1999.90;999.90;;;6.80;99.90;;;;;;6188895;23;20172;-88
2020/12/19 09:15:05;;;;;;;;;;;;;;;;;;;;;
2020/12/19 09:17:50;;;;;;;1999.90;999.90;;;6.80;99.90;;;;;;6216170;23;20653;-88
2020/12/19 09:20:23;;;;;;;1999.90;999.90;;;6.90;99.90;;;;;;6217223;23;20145;-86
2020/12/19 09:23:03;;;;;;;1999.90;999.90;;;6.90;99.90;;;;;;6216867;23;20224;-86
2020/12/19 09:25:38;;;;;;;1999.90;999.90;;;7.00;99.90;;;;;;6191955;23;20231;-86
2020/12/19 09:28:14;;;;;;;1999.90;999.90;;;7.00;99.90;;;;;;6191203;23;20152;-87
2020/12/19 09:30:51;;;;;;;1999.90;999.90;;;7.10;99.90;;;;;;6190723;23;20148;-87
2020/12/19 09:33:17;;;;;;;1999.90;999.90;;;7.20;99.90;;;;;;6190899;23;20164;-86
2020/12/19 09:35:43;;;;;;;1999.90;999.90;;;7.20;99.90;;;;;;6193228;23;20149;-87
2020/12/19 09:38:13;;;;;;;1999.90;999.90;;;7.30;99.90;;;;;;6191379;23;20191;-86
2020/12/19 09:40:44;;;;;;;1999.90;999.90;;;7.30;99.90;;;;;;6217660;23;20527;-86
2020/12/19 09:43:09;;;;;;;1999.90;999.90;;;7.40;99.90;;;;;;6191154;23;20141;-86
2020/12/19 09:45:36;;;;;;;1999.90;999.90;;;7.40;99.90;;;;;;6217499;23;20140;-86
2020/12/19 09:48:05;;;;;;;1999.90;999.90;;;7.50;99.90;;;;;;6216690;23;20411;-87
2020/12/19 09:50:41;;;;;;;1999.90;999.90;;;7.50;99.90;;;;;;6190289;23;20155;-86
2020/12/19 09:53:07;;;;;;;1999.90;999.90;;;7.60;99.90;;;;;;6190789;23;20586;-86
2020/12/19 09:55:34;;;;;;;1999.90;999.90;;;7.60;99.90;;;;;;6189855;23;20149;-86
2020/12/19 09:58:16;;;;;;;;;;;;;;;;;;;;;
2020/12/19 10:00:45;;;;;;;1999.90;999.90;;;7.70;99.90;;;;;;6217749;23;20633;-86
2020/12/19 10:03:11;;;;;;;1999.90;999.90;;;7.80;99.90;;;;;;6191962;23;20152;-86
2020/12/19 10:05:39;;;;;;;1999.90;999.90;;;7.90;99.90;;;;;;6190767;23;20211;-86
2020/12/19 10:08:06;;;;;;;1999.90;999.90;;;8.10;99.90;;;;;;6191025;23;20404;-86
2020/12/19 10:10:52;;;;;;;1999.90;999.90;;;8.20;99.90;;;;;;6217492;23;20144;-86
2020/12/19 10:13:46;;;;;;;1999.90;999.90;;;8.30;99.90;;;;;;6190947;23;20160;-86
2020/12/19 10:16:11;;;;;;;1999.90;999.90;;;8.40;99.90;;;;;;6217538;23;20183;-87
2020/12/19 10:18:43;;;;;;;1999.90;999.90;;;8.50;99.90;;;;;;6218093;23;20471;-86
2020/12/19 10:21:31;;;;;;;1999.90;999.90;;;8.60;99.90;;;;;;6218670;23;20184;-86
2020/12/19 10:23:57;;;;;;;1999.90;999.90;;;8.70;99.90;;;;;;6192337;23;20137;-86
2020/12/19 10:26:23;;;;;;;1999.90;999.90;;;8.70;99.90;;;;;;6191798;23;20194;-86
2020/12/19 10:28:49;;;;;;;1999.90;999.90;;;8.80;99.90;;;;;;6191955;23;20364;-86
2020/12/19 10:31:18;;;;;;;1999.90;999.90;;;8.80;99.90;;;;;;6191026;23;20164;-86
2020/12/19 10:33:46;;;;;;;1999.90;999.90;;;8.80;99.90;;;;;;6217945;23;20468;-86
2020/12/19 10:36:24;;;;;;;1999.90;999.90;;;8.90;99.90;;;;;;6217509;23;20148;-86
2020/12/19 10:38:59;;;;;;;1999.90;999.90;;;9.00;99.90;;;;;;6218276;23;20493;-86
2020/12/19 10:41:28;;;;;;;1999.90;999.90;;;9.10;99.90;;;;;;6218042;23;20216;-86
2020/12/19 10:43:54;;;;;;;1999.90;999.90;;;9.10;99.90;;;;;;6191665;23;20191;-86
2020/12/19 10:46:30;;;;;;;1999.90;999.90;;;9.20;99.90;;;;;;6218841;23;20145;-86
2020/12/19 10:48:59;;;;;;;1999.90;999.90;;;9.30;99.90;;;;;;6191906;23;20376;-86
2020/12/19 10:51:28;;;;;;;1999.90;999.90;;;9.30;99.90;;;;;;6216953;23;20286;-86
2020/12/19 10:53:57;;;;;;;1999.90;999.90;;;9.30;99.90;;;;;;6191074;23;20222;-86
2020/12/19 10:56:23;;;;;;;1999.90;999.90;;;9.40;99.90;;;;;;6217032;23;20164;-86
2020/12/19 10:58:52;;;;;;;1999.90;999.90;;;9.50;99.90;;;;;;6217804;23;20141;-86
2020/12/19 11:01:30;;;;;;;1999.90;999.90;;;9.50;99.90;;;;;;6191533;23;20434;-86
2020/12/19 11:03:56;;;;;;;1999.90;999.90;;;9.60;99.90;;;;;;6217956;23;20135;-86
2020/12/19 11:06:26;;;;;;;1999.90;999.90;;;9.70;99.90;;;;;;6190420;23;20204;-86
2020/12/19 11:08:53;;;;;;;1999.90;999.90;;;9.70;99.90;;;;;;6190220;23;20148;-86
2020/12/19 11:11:23;;;;;;;1999.90;999.90;;;9.80;99.90;;;;;;6190065;23;20211;-86
2020/12/19 11:13:50;;;;;;;1999.90;999.90;;;9.80;99.90;;;;;;6217622;23;20164;-86
2020/12/19 11:16:27;;;;;;;1999.90;999.90;;;9.80;99.90;;;;;;6190437;23;20176;-86
2020/12/19 11:18:53;;;;;;;1999.90;999.90;;;9.90;99.90;;;;;;6217311;23;20128;-86
2020/12/19 11:21:19;;;;;;;1999.90;999.90;;;10.00;99.90;;;;;;6189400;23;20203;-86
2020/12/19 11:23:49;;;;;;;1999.90;999.90;;;10.00;99.90;;;;;;6190163;23;20152;-86
2020/12/19 11:26:32;;;;;;;1999.90;999.90;;;10.10;99.90;;;;;;6216786;23;20167;-86
2020/12/19 11:29:00;;;;;;;1999.90;999.90;;;10.10;99.90;;;;;;6216765;23;20135;-86
2020/12/19 11:31:32;;;;;;;1999.90;999.90;;;10.20;99.90;;;;;;6190260;23;20164;-86
2020/12/19 11:33:57;;;;;;;1999.90;999.90;;;10.20;99.90;;;;;;6216722;23;20183;-86
2020/12/19 11:36:26;;;;;;;1999.90;999.90;;;10.30;99.90;;;;;;6216583;23;20166;-86
2020/12/19 11:38:51;;;;;;;1999.90;999.90;;;10.40;99.90;;;;;;6216287;23;20207;-86
2020/12/19 11:41:32;;;;;;;;;;;;;;;;;;;;;
2020/12/19 11:43:58;;;;;;;1999.90;999.90;;;10.50;99.90;;;;;;6217139;23;20223;-86
2020/12/19 11:46:29;;;;;;;1999.90;999.90;;;10.60;99.90;;;;;;6216653;23;20175;-86
2020/12/19 11:48:55;;;;;;;1999.90;999.90;;;10.60;99.90;;;;;;6216920;23;20132;-86
2020/12/19 11:51:34;;;;;;;1999.90;999.90;;;10.60;99.90;;;;;;6216621;23;20235;-86
2020/12/19 11:54:01;;;;;;;1999.90;999.90;;;10.80;99.90;;;;;;6191149;23;20375;-86
2020/12/19 11:56:27;;;;;;;1999.90;999.90;;;10.80;99.90;;;;;;6216308;23;20140;-86
2020/12/19 11:58:53;;;;;;;1999.90;999.90;;;10.90;99.90;;;;;;6216861;23;20141;-86
2020/12/19 12:01:28;;;;;;;1999.90;999.90;;;10.90;99.90;;;;;;6189827;23;20156;-86
2020/12/19 12:03:54;;;;;;;1999.90;999.90;;;10.90;99.90;;;;;;6216736;23;20418;-86
2020/12/19 12:06:29;;;;;;;1999.90;999.90;;;11.00;99.90;;;;;;6216242;23;20141;-87
2020/12/19 12:08:56;;;;;;;1999.90;999.90;;;11.10;99.90;;;;;;6190864;23;20612;-86
2020/12/19 12:11:29;;;;;;;1999.90;999.90;;;11.20;99.90;;;;;;6189553;23;20164;-86
2020/12/19 12:13:56;;;;;;;1999.90;999.90;;;11.20;99.90;;;;;;6216934;23;20610;-86
2020/12/19 12:16:24;;;;;;;1999.90;999.90;;;11.20;99.90;;;;;;6189825;23;20179;-86
2020/12/19 12:18:49;;;;;;;1999.90;999.90;;;11.20;99.90;;;;;;6189886;23;20149;-86
2020/12/19 12:21:15;;;;;;;1999.90;999.90;;;11.20;99.90;;;;;;6176241;23;20193;-85
2020/12/19 12:23:43;;;;;;;1999.90;999.90;;;11.30;99.90;;;;;;6199460;23;20141;-85
2020/12/19 12:26:09;;;;;;;1999.90;999.90;;;11.30;99.90;;;;;;6196452;23;20598;-85
2020/12/19 12:28:35;;;;;;;1999.90;999.90;;;11.30;99.90;;;;;;6199047;23;20138;-85
2020/12/19 12:31:00;;;;;;;1999.90;999.90;;;11.30;99.90;;;;;;6195752;23;20562;-85
2020/12/19 12:33:26;;;;;;;1999.90;999.90;;;11.40;99.90;;;;;;6196441;23;20145;-85
2020/12/19 12:35:52;;;;;;;1999.90;999.90;;;11.40;99.90;;;;;;6193918;23;20137;-85
2020/12/19 12:38:17;;;;;;;1999.90;999.90;;;11.40;99.90;;;;;;6198425;23;20141;-85
2020/12/19 12:40:43;;;;;;;1999.90;999.90;;;11.50;99.90;;;;;;6172641;23;20152;-85
2020/12/19 12:43:09;;;;;;;1999.90;999.90;;;11.50;99.90;;;;;;6171933;23;20149;-85
2020/12/19 12:45:35;;;;;;;1999.90;999.90;;;11.60;99.90;;;;;;6172127;23;20420;-85
2020/12/19 12:48:00;;;;;;;1999.90;999.90;;;11.70;99.90;;;;;;6172359;23;20148;-85
2020/12/19 12:50:26;;;;;;;1999.90;999.90;;;11.70;99.90;;;;;;6199042;23;20141;-85
2020/12/19 12:52:52;;;;;;;1999.90;999.90;;;11.60;99.90;;;;;;6199088;23;20169;-85
2020/12/19 12:55:17;;;;;;;1999.90;999.90;;;11.60;99.90;;;;;;6199137;23;20192;-85
2020/12/19 12:57:43;;;;;;;1999.90;999.90;;;11.60;99.90;;;;;;6172799;23;20408;-85
2020/12/19 13:00:11;;;;;;;1999.90;999.90;;;11.50;99.90;;;;;;6199093;23;20137;-85
2020/12/19 13:02:37;;;;;;;1999.90;999.90;;;11.50;99.90;;;;;;6198917;23;20172;-85
2020/12/19 13:05:03;;;;;;;1999.90;999.90;;;11.50;99.90;;;;;;6199244;23;20145;-85
2020/12/19 13:07:29;;;;;;;1999.90;999.90;;;11.50;99.90;;;;;;6173136;23;20150;-85
2020/12/19 13:09:54;;;;;;;1999.90;999.90;;;11.50;99.90;;;;;;6173265;23;20531;-85
2020/12/19 13:12:20;;;;;;;1999.90;999.90;;;11.50;99.90;;;;;;6198957;23;20415;-84
2020/12/19 13:14:46;;;;;;;1999.90;999.90;;;11.50;99.90;;;;;;6172939;23;20149;-85
2020/12/19 13:17:11;;;;;;;1999.90;999.90;;;11.50;99.90;;;;;;6173423;23;20199;-85
2020/12/19 13:19:39;;;;;;;1999.90;999.90;;;11.50;99.90;;;;;;6168032;23;20209;-85
2020/12/19 13:22:05;;;;;;;1999.90;999.90;;;11.40;99.90;;;;;;6194822;23;20172;-85
2020/12/19 13:24:31;;;;;;;1999.90;999.90;;;11.40;99.90;;;;;;6199022;23;20138;-85
2020/12/19 13:26:56;;;;;;;1999.90;999.90;;;11.40;99.90;;;;;;6199478;23;20172;-85
2020/12/19 13:29:22;;;;;;;1999.90;999.90;;;11.40;99.90;;;;;;6197984;23;20149;-85
2020/12/19 13:31:48;;;;;;;1999.90;999.90;;;11.40;99.90;;;;;;6199244;23;20180;-85
2020/12/19 13:34:14;;;;;;;1999.90;999.90;;;11.30;99.90;;;;;;6200193;23;20164;-85
2020/12/19 13:36:41;;;;;;;1999.90;999.90;;;11.30;99.90;;;;;;6199754;23;20368;-84
2020/12/19 13:39:07;;;;;;;1999.90;999.90;;;11.30;99.90;;;;;;6201899;23;20165;-85
2020/12/19 13:41:34;;;;;;;1999.90;999.90;;;11.30;99.90;;;;;;6201291;23;20149;-85
2020/12/19 13:44:01;;;;;;;1999.90;999.90;;;11.30;99.90;;;;;;6201137;23;20471;-85
2020/12/19 13:46:27;;;;;;;1999.90;999.90;;;11.20;99.90;;;;;;6199452;23;20201;-85
2020/12/19 13:48:53;;;;;;;1999.90;999.90;;;11.10;99.90;;;;;;6200007;23;20153;-85
2020/12/19 13:51:19;;;;;;;1999.90;999.90;;;11.10;99.90;;;;;;6201042;23;20223;-85
2020/12/19 13:53:45;;;;;;;1999.90;999.90;;;11.00;99.90;;;;;;6200610;23;20160;-85
2020/12/19 13:56:19;;;;;;;1999.90;999.90;;;11.00;99.90;;;;;;6199885;23;20149;-85
2020/12/19 13:58:44;;;;;;;1999.90;999.90;;;11.00;99.90;;;;;;6201331;23;20126;-85
2020/12/19 14:01:10;;;;;;;1999.90;999.90;;;11.00;99.90;;;;;;6201002;23;20153;-85
2020/12/19 14:03:36;;;;;;;1999.90;999.90;;;10.90;99.90;;;;;;6200776;23;20172;-85
2020/12/19 14:06:01;;;;;;;1999.90;999.90;;;10.90;99.90;;;;;;6193391;23;20149;-84
2020/12/19 14:08:27;;;;;;;1999.90;999.90;;;10.90;99.90;;;;;;6193788;23;20145;-84
2020/12/19 14:10:53;;;;;;;1999.90;999.90;;;10.80;99.90;;;;;;6191668;23;20575;-84
2020/12/19 14:13:18;;;;;;;1999.90;999.90;;;10.80;99.90;;;;;;6197348;23;20173;-85
2020/12/19 14:15:46;;;;;;;1999.90;999.90;;;10.80;99.90;;;;;;6198298;23;20208;-85
2020/12/19 14:18:11;;;;;;;1999.90;999.90;;;10.80;99.90;;;;;;6199352;23;20137;-85
2020/12/19 14:20:42;;;;;;;1999.90;999.90;;;10.70;99.90;;;;;;6198573;23;20216;-84
2020/12/19 14:23:07;;;;;;;1999.90;999.90;;;10.70;99.90;;;;;;6199152;23;20145;-85
2020/12/19 14:25:33;;;;;;;1999.90;999.90;;;10.70;99.90;;;;;;6201170;23;20156;-85
2020/12/19 14:27:58;;;;;;;1999.90;999.90;;;10.70;99.90;;;;;;6201890;23;20152;-85
2020/12/19 14:30:24;;;;;;;1999.90;999.90;;;10.70;99.90;;;;;;6200051;23;20173;-85
2020/12/19 14:32:50;;;;;;;1999.90;999.90;;;10.60;99.90;;;;;;6201312;23;20169;-85
2020/12/19 14:35:15;;;;;;;1999.90;999.90;;;10.60;99.90;;;;;;6199437;23;20145;-85
2020/12/19 14:37:41;;;;;;;1999.90;999.90;;;10.60;99.90;;;;;;6199626;23;20152;-85
2020/12/19 14:40:09;;;;;;;1999.90;999.90;;;10.60;99.90;;;;;;6200166;23;20148;-85
2020/12/19 14:42:42;;;;;;;1999.90;999.90;;;10.60;99.90;;;;;;6200098;23;20145;-85
2020/12/19 14:45:09;;;;;;;1999.90;999.90;;;10.60;99.90;;;;;;6196372;23;20149;-84
2020/12/19 14:47:35;;;;;;;1999.90;999.90;;;10.60;99.90;;;;;;6196730;23;20141;-85
2020/12/19 14:50:02;;;;;;;1999.90;999.90;;;10.60;99.90;;;;;;6195182;23;20141;-85
2020/12/19 14:52:27;;;;;;;1999.90;999.90;;;10.60;99.90;;;;;;6193911;23;20196;-84
2020/12/19 14:54:53;;;;;;;1999.90;999.90;;;10.60;99.90;;;;;;6193689;23;20137;-84
2020/12/19 14:57:19;;;;;;;1999.90;999.90;;;10.60;99.90;;;;;;6191583;23;20483;-85
2020/12/19 14:59:44;;;;;;;1999.90;999.90;;;10.60;99.90;;;;;;6194672;23;20296;-85
2020/12/19 15:02:10;;;;;;;1999.90;999.90;;;10.60;99.90;;;;;;6193810;23;20141;-84
2020/12/19 15:04:36;;;;;;;1999.90;999.90;;;10.60;99.90;;;;;;6195874;23;20225;-85
2020/12/19 15:07:01;;;;;;;1999.90;999.90;;;10.50;99.90;;;;;;6192622;23;20199;-88
2020/12/19 15:09:27;;;;;;;1999.90;999.90;;;10.60;99.90;;;;;;6193509;23;20219;-84
2020/12/19 15:11:53;;;;;;;1999.90;999.90;;;10.60;99.90;;;;;;6194857;23;20176;-84
2020/12/19 15:14:18;;;;;;;1999.90;999.90;;;10.50;99.90;;;;;;6195236;23;20376;-84
2020/12/19 15:16:44;;;;;;;1999.90;999.90;;;10.60;99.90;;;;;;6193390;23;20173;-84
2020/12/19 15:19:10;;;;;;;1999.90;999.90;;;10.60;99.90;;;;;;6193563;23;20487;-85
2020/12/19 15:21:36;;;;;;;1999.90;999.90;;;10.60;99.90;;;;;;6195061;23;20161;-83
2020/12/19 15:24:02;;;;;;;1999.90;999.90;;;10.60;99.90;;;;;;6144011;23;20145;-84
2020/12/19 15:26:29;;;;;;;1999.90;999.90;;;10.60;99.90;;;;;;6194869;23;20211;-84
2020/12/19 15:28:57;;;;;;;1999.90;999.90;;;10.60;99.90;;;;;;6192966;23;20491;-86
2020/12/19 15:31:23;;;;;;;1999.90;999.90;;;10.60;99.90;;;;;;6166818;23;20640;-86
2020/12/19 15:33:48;;;;;;;1999.90;999.90;;;10.70;99.90;;;;;;6192533;23;20152;-85
2020/12/19 15:36:14;;;;;;;1999.90;999.90;;;10.70;99.90;;;;;;6192936;23;20365;-85
2020/12/19 15:38:40;;;;;;;1999.90;999.90;;;10.70;99.90;;;;;;6166984;23;20657;-85
2020/12/19 15:41:13;;;;;;;1999.90;999.90;;;10.70;99.90;;;;;;6193641;23;20372;-85
2020/12/19 15:44:01;;;;;;;1999.90;999.90;;;10.70;99.90;;;;;;6193081;23;20129;-84
2020/12/19 15:46:27;;;;;;;1999.90;999.90;;;10.60;99.90;;;;;;6170773;23;20204;-83
2020/12/19 15:48:53;;;;;;;1999.90;999.90;;;10.70;99.90;;;;;;6193192;23;20522;-83
2020/12/19 15:51:19;;;;;;;1999.90;999.90;;;10.70;99.90;;;;;;6192545;23;20165;-83
2020/12/19 15:53:45;;;;;;;1999.90;999.90;;;10.60;99.90;;;;;;6192445;23;20533;-83
2020/12/19 15:56:12;;;;;;;1999.90;999.90;;;10.60;99.90;;;;;;6192402;23;20145;-82
2020/12/19 15:58:38;;;;;;;1999.90;999.90;;;10.60;99.90;;;;;;6193058;23;20145;-82
2020/12/19 16:01:03;;;;;;;1999.90;999.90;;;10.60;99.90;;;;;;6193177;23;20584;-84
2020/12/19 16:03:29;;;;;;;1999.90;999.90;;;10.60;99.90;;;;;;6165600;23;20152;-83
2020/12/19 16:05:55;;;;;;;1999.90;999.90;;;10.60;99.90;;;;;;6193207;23;20217;-83
2020/12/19 16:08:21;;;;;;;1999.90;999.90;;;10.60;99.90;;;;;;6170336;23;20164;-82
2020/12/19 16:10:46;;;;;;;1999.90;999.90;;;10.60;99.90;;;;;;6196498;23;20133;-82
2020/12/19 16:13:12;;;;;;;1999.90;999.90;;;10.60;99.90;;;;;;6197306;23;20904;-82
2020/12/19 16:15:38;;;;;;;1999.90;999.90;;;10.60;99.90;;;;;;6192466;23;20452;-83
2020/12/19 16:18:03;;;;;;;1999.90;999.90;;;10.60;99.90;;;;;;6166071;23;20224;-82
2020/12/19 16:20:29;;;;;;;1999.90;999.90;;;10.70;99.90;;;;;;6191993;23;20244;-83
2020/12/19 16:22:55;;;;;;;1999.90;999.90;;;10.70;99.90;;;;;;6169673;23;20191;-83
2020/12/19 16:25:21;;;;;;;1999.90;999.90;;;10.70;99.90;;;;;;6192407;23;20382;-83
2020/12/19 16:27:46;;;;;;;1999.90;999.90;;;10.70;99.90;;;;;;6191648;23;20452;-83
2020/12/19 16:30:12;;;;;;;1999.90;999.90;;;10.70;99.90;;;;;;6165705;23;20150;-83
2020/12/19 16:32:39;;;;;;;1999.90;999.90;;;10.80;99.90;;;;;;6192652;23;20248;-83
2020/12/19 16:35:05;;;;;;;1999.90;999.90;;;10.80;99.90;;;;;;6197843;23;20125;-84
2020/12/19 16:37:31;;;;;;;1999.90;999.90;;;10.80;99.90;;;;;;6176445;23;20153;-84
2020/12/19 16:39:56;;;;;;;1999.90;999.90;;;10.80;99.90;;;;;;6177112;23;20145;-84
2020/12/19 16:42:22;;;;;;;1999.90;999.90;;;10.80;99.90;;;;;;6203111;23;20142;-84
2020/12/19 16:44:48;;;;;;;1999.90;999.90;;;10.80;99.90;;;;;;6202107;23;20149;-84
2020/12/19 16:47:13;;;;;;;1999.90;999.90;;;10.80;99.90;;;;;;6201783;23;20201;-83
2020/12/19 16:49:39;;;;;;;1999.90;999.90;;;10.70;99.90;;;;;;6200959;23;20482;-84
2020/12/19 16:52:05;;;;;;;1999.90;999.90;;;10.70;99.90;;;;;;6175247;23;20514;-84
2020/12/19 16:54:30;;;;;;;1999.90;999.90;;;10.70;99.90;;;;;;6201172;23;20125;-84